Time;durP1;ratioP1;P1;durP2;ratioP2;P2;SDS_P1;SDS_P2;PMS_P1;PMS_P2;Temp;Humidity;BMP_temperature;BMP_pressure;BME280_temperature;BME280_humidity;BME280_pressure;Samples;Min_cycle;Max_cycle;Signal;HPM_P1;HPM_P2
2021/03/07 00:00:37;;;;;;;64.40;34.13;;;77.30;1408.00;;;;;;5035905;28;20080;-74
2021/03/07 00:03:03;;;;;;;78.07;39.73;;;77.30;1408.00;;;;;;5035662;28;20022;-72
2021/03/07 00:05:29;;;;;;;79.80;43.97;;;77.30;1382.40;;;;;;5035586;28;20125;-72
2021/03/07 00:07:55;;;;;;;67.03;33.67;;;77.40;1408.00;;;;;;5034263;28;20073;-72
2021/03/07 00:10:22;;;;;;;62.33;33.90;;;77.30;1382.40;;;;;;5035481;28;20036;-74
2021/03/07 00:12:49;;;;;;;66.17;35.87;;;77.40;1408.00;;;;;;5035499;28;20030;-75
2021/03/07 00:15:17;;;;;;;63.77;35.23;;;77.40;1408.00;;;;;;5035342;28;20030;-72
2021/03/07 00:17:44;;;;;;;65.73;36.77;;;77.40;1382.40;;;;;;5035317;28;20112;-72
2021/03/07 00:20:12;;;;;;;114.33;56.70;;;77.30;1408.00;;;;;;5035555;28;20510;-72
2021/03/07 00:22:39;;;;;;;82.33;42.10;;;77.20;1433.60;;;;;;5035418;28;20069;-72
2021/03/07 00:25:06;;;;;;;105.10;50.67;;;77.30;1408.00;;;;;;5035232;28;20029;-72
2021/03/07 00:27:32;;;;;;;107.17;52.57;;;77.30;1433.60;;;;;;5035148;28;20029;-72
2021/03/07 00:29:58;;;;;;;114.50;55.23;;;77.20;1433.60;;;;;;5035408;28;20033;-72
2021/03/07 00:32:24;;;;;;;120.33;56.03;;;77.20;1433.60;;;;;;5035081;28;20410;-72
2021/03/07 00:34:50;;;;;;;98.43;53.10;;;76.90;1484.80;;;;;;5033705;28;20034;-75
2021/03/07 00:37:16;;;;;;;95.57;51.07;;;52.10;1510.40;;;;;;5033689;28;20029;-74
2021/03/07 00:39:42;;;;;;;103.93;53.30;;;52.10;1484.80;;;;;;5035501;28;20429;-72
2021/03/07 00:42:08;;;;;;;99.40;50.53;;;52.00;1510.40;;;;;;5034910;28;20021;-74
2021/03/07 00:44:34;;;;;;;99.60;52.20;;;52.00;1536.00;;;;;;5034771;28;20029;-72
2021/03/07 00:47:00;;;;;;;111.27;53.47;;;51.90;1510.40;;;;;;5034532;28;20029;-72
2021/03/07 00:49:29;;;;;;;104.37;50.33;;;51.90;1536.00;;;;;;5034732;28;20494;-74
2021/03/07 00:51:55;;;;;;;95.30;50.33;;;51.80;1536.00;;;;;;5066764;28;20120;-72
2021/03/07 00:54:22;;;;;;;95.43;48.40;;;51.80;1561.60;;;;;;5034447;28;20445;-74
2021/03/07 00:56:48;;;;;;;96.30;49.87;;;51.70;1561.60;;;;;;5034626;28;20104;-74
2021/03/07 00:59:14;;;;;;;111.07;55.73;;;51.60;1561.60;;;;;;5034586;28;20486;-72
2021/03/07 01:01:40;;;;;;;115.13;59.73;;;51.60;1561.60;;;;;;5034544;28;20049;-72
2021/03/07 01:04:07;;;;;;;116.73;59.13;;;51.50;1561.60;;;;;;5034668;28;20108;-74
2021/03/07 01:06:33;;;;;;;97.13;52.80;;;51.40;1561.60;;;;;;5034467;28;20021;-72
2021/03/07 01:08:59;;;;;;;101.17;50.43;;;51.40;1561.60;;;;;;5034421;28;20390;-72
2021/03/07 01:11:26;;;;;;;89.43;47.73;;;51.30;1536.00;;;;;;5034283;28;20029;-74
2021/03/07 01:13:52;;;;;;;86.20;46.87;;;51.40;1536.00;;;;;;5034309;28;20033;-72
2021/03/07 01:16:18;;;;;;;93.67;47.60;;;51.40;1510.40;;;;;;5034177;28;20037;-74
2021/03/07 01:18:44;;;;;;;82.13;44.27;;;51.40;1484.80;;;;;;5034197;28;20096;-72
2021/03/07 01:21:10;;;;;;;81.60;44.67;;;51.50;1510.40;;;;;;5034188;28;20026;-72
2021/03/07 01:23:36;;;;;;;87.90;45.53;;;51.50;1510.40;;;;;;5034104;28;20490;-72
2021/03/07 01:26:02;;;;;;;77.57;42.57;;;51.50;1536.00;;;;;;5034384;28;20021;-72
2021/03/07 01:28:28;;;;;;;77.57;42.23;;;51.60;1459.20;;;;;;5034035;28;20482;-74
2021/03/07 01:30:54;;;;;;;82.87;42.97;;;51.60;1510.40;;;;;;5033931;28;20034;-74
2021/03/07 01:33:20;;;;;;;79.17;42.90;;;51.60;1510.40;;;;;;5033991;28;20441;-74
2021/03/07 01:35:47;;;;;;;87.17;44.37;;;51.60;1484.80;;;;;;5033844;28;20104;-72
2021/03/07 01:38:13;;;;;;;78.17;42.77;;;51.70;1510.40;;;;;;5034041;28;20028;-72
2021/03/07 01:40:45;;;;;;;79.83;43.33;;;51.70;1510.40;;;;;;5034141;28;20101;-72
2021/03/07 01:43:12;;;;;;;85.27;44.50;;;51.70;1510.40;;;;;;5033802;28;20056;-74
2021/03/07 01:45:38;;;;;;;80.30;43.30;;;51.70;1510.40;;;;;;5033752;28;20030;-72
2021/03/07 01:48:07;;;;;;;79.60;43.47;;;51.70;1484.80;;;;;;5033699;28;20033;-74
2021/03/07 01:50:36;;;;;;;77.43;41.57;;;51.70;1484.80;;;;;;5033693;28;20108;-72
2021/03/07 01:53:03;;;;;;;75.70;42.50;;;51.70;1459.20;;;;;;5033540;28;20053;-72
2021/03/07 01:55:32;;;;;;;80.97;44.00;;;51.50;1536.00;;;;;;5032250;28;20554;-74
2021/03/07 01:58:00;;;;;;;77.23;42.87;;;51.50;1536.00;;;;;;5033060;28;20026;-74
2021/03/07 02:00:26;;;;;;;74.40;41.07;;;51.50;1510.40;;;;;;5033491;28;20113;-72
2021/03/07 02:02:52;;;;;;;70.20;40.40;;;51.40;1587.20;;;;;;5033803;28;20069;-73
2021/03/07 02:05:20;;;;;;;80.00;41.70;;;51.40;1536.00;;;;;;5033507;28;20068;-72
2021/03/07 02:07:47;;;;;;;71.40;39.37;;;51.50;1484.80;;;;;;5032238;28;20493;-72
2021/03/07 02:10:21;;;;;;;78.37;42.20;;;51.60;1459.20;;;;;;5033461;28;20075;-75
2021/03/07 02:12:49;;;;;;;76.03;41.67;;;51.60;1536.00;;;;;;5033729;28;20021;-72
2021/03/07 02:15:16;;;;;;;75.60;42.37;;;51.50;1510.40;;;;;;5033255;28;20084;-72
2021/03/07 02:17:42;;;;;;;69.07;41.33;;;51.50;1536.00;;;;;;5033383;28;20021;-73
2021/03/07 02:20:10;;;;;;;71.27;39.13;;;51.50;1510.40;;;;;;5032109;28;20025;-72
2021/03/07 02:22:44;;;;;;;76.77;43.37;;;51.50;1536.00;;;;;;5033308;28;20022;-72
2021/03/07 02:25:12;;;;;;;79.47;43.67;;;51.40;1510.40;;;;;;5032069;28;20025;-72
2021/03/07 02:27:39;;;;;;;76.47;40.63;;;51.50;1484.80;;;;;;5031940;28;20383;-72
2021/03/07 02:30:08;;;;;;;84.43;45.50;;;51.50;1510.40;;;;;;5033250;28;20028;-72
2021/03/07 02:32:37;;;;;;;102.27;51.93;;;51.40;1561.60;;;;;;5033199;28;20025;-73
2021/03/07 02:35:16;;;;;;;93.17;46.80;;;51.40;1536.00;;;;;;5033421;28;20103;-72
2021/03/07 02:37:49;;;;;;;93.37;49.93;;;51.40;1536.00;;;;;;5033455;28;20415;-72
2021/03/07 02:40:19;;;;;;;98.50;50.87;;;51.30;1536.00;;;;;;5033185;28;20036;-72
2021/03/07 02:42:47;;;;;;;113.60;55.67;;;51.30;1561.60;;;;;;5036069;28;20057;-72
2021/03/07 02:45:20;;;;;;;132.27;63.17;;;51.20;1561.60;;;;;;5049700;28;20055;-72
2021/03/07 02:47:49;;;;;;;113.97;60.90;;;26.50;1536.00;;;;;;5053048;28;20025;-71
2021/03/07 02:50:21;;;;;;;116.40;59.97;;;51.20;1587.20;;;;;;5051736;28;20022;-71
2021/03/07 02:52:51;;;;;;;117.00;59.60;;;26.50;1561.60;;;;;;5052805;28;20502;-71
2021/03/07 02:55:19;;;;;;;119.47;60.77;;;51.20;1561.60;;;;;;5052915;28;20059;-71
2021/03/07 02:57:48;;;;;;;122.90;58.83;;;26.50;1561.60;;;;;;5053190;28;20100;-72
2021/03/07 03:00:15;;;;;;;116.83;58.80;;;26.40;1587.20;;;;;;5052858;28;20033;-71
2021/03/07 03:02:43;;;;;;;114.23;57.60;;;26.40;1561.60;;;;;;5052907;28;20025;-71
2021/03/07 03:05:12;;;;;;;117.67;53.67;;;26.40;1587.20;;;;;;5052866;28;20087;-72
2021/03/07 03:07:39;;;;;;;119.40;55.63;;;26.30;1536.00;;;;;;5052856;28;20043;-72
2021/03/07 03:10:07;;;;;;;106.20;55.13;;;26.30;1587.20;;;;;;5055177;28;20074;-71
2021/03/07 03:12:36;;;;;;;115.50;56.00;;;26.30;1612.80;;;;;;5056519;28;20047;-71
2021/03/07 03:15:04;;;;;;;116.87;58.17;;;26.30;1561.60;;;;;;5056431;28;20033;-71
2021/03/07 03:17:31;;;;;;;121.87;57.43;;;26.20;1612.80;;;;;;5056318;28;20025;-72
2021/03/07 03:19:57;;;;;;;125.00;58.63;;;26.30;1587.20;;;;;;5056407;28;20021;-72
2021/03/07 03:22:24;;;;;;;135.80;59.37;;;26.30;1561.60;;;;;;5056336;28;20108;-72
2021/03/07 03:24:50;;;;;;;127.20;56.17;;;26.30;1561.60;;;;;;5056275;28;20025;-72
2021/03/07 03:27:16;;;;;;;128.47;55.27;;;26.30;1536.00;;;;;;5056584;28;20021;-72
2021/03/07 03:29:42;;;;;;;109.83;54.73;;;26.20;1536.00;;;;;;5056212;28;20017;-71
2021/03/07 03:32:09;;;;;;;116.00;56.43;;;26.30;1510.40;;;;;;5056185;28;20017;-72
2021/03/07 03:34:36;;;;;;;112.23;56.80;;;26.30;1536.00;;;;;;5054742;28;20086;-72
2021/03/07 03:37:04;;;;;;;220.83;96.90;;;26.20;1536.00;;;;;;5056078;28;20021;-72
2021/03/07 03:39:31;;;;;;;231.30;103.27;;;26.20;1587.20;;;;;;5056079;28;20021;-72
2021/03/07 03:42:01;;;;;;;297.97;128.47;;;26.20;1561.60;;;;;;5054679;28;20485;-72
2021/03/07 03:44:38;;;;;;;371.23;151.63;;;26.10;1587.20;;;;;;5055950;28;20461;-72
2021/03/07 03:47:11;;;;;;;417.33;173.47;;;26.10;1561.60;;;;;;5056011;28;20025;-72
2021/03/07 03:49:47;;;;;;;327.50;135.00;;;26.00;1587.20;;;;;;5056111;28;20079;-72
2021/03/07 03:52:14;;;;;;;299.40;123.63;;;26.00;1638.40;;;;;;5054519;28;20087;-72
2021/03/07 03:55:00;;;;;;;294.70;123.13;;;25.90;1561.60;;;;;;5055536;28;20505;-72
2021/03/07 03:57:29;;;;;;;421.10;172.23;;;26.00;1587.20;;;;;;5055680;28;20029;-72
2021/03/07 03:59:57;;;;;;;316.80;136.27;;;26.00;1638.40;;;;;;5054347;28;20021;-72
2021/03/07 04:02:26;;;;;;;345.77;145.10;;;26.00;1638.40;;;;;;5055519;28;20025;-72
2021/03/07 04:04:58;;;;;;;383.33;161.33;;;25.90;1612.80;;;;;;5055552;28;20053;-72
2021/03/07 04:07:25;;;;;;;349.73;143.40;;;26.00;1561.60;;;;;;5055430;28;20056;-72
2021/03/07 04:09:55;;;;;;;313.10;131.33;;;26.00;1536.00;;;;;;5055471;28;20109;-73
2021/03/07 04:12:23;;;;;;;296.90;126.33;;;25.90;1587.20;;;;;;5055394;28;20029;-74
2021/03/07 04:14:51;;;;;;;260.50;108.90;;;25.90;1587.20;;;;;;5054059;28;20090;-72
2021/03/07 04:17:21;;;;;;;237.23;102.37;;;25.80;1612.80;;;;;;5055318;28;20374;-72
2021/03/07 04:19:48;;;;;;;224.63;94.07;;;25.80;1612.80;;;;;;5055043;28;20017;-72
2021/03/07 04:22:14;;;;;;;191.13;88.33;;;25.90;1536.00;;;;;;5055246;28;20028;-72
2021/03/07 04:24:40;;;;;;;167.93;75.63;;;25.80;1612.80;;;;;;5055167;28;20021;-72
2021/03/07 04:27:07;;;;;;;183.07;84.30;;;25.80;1587.20;;;;;;5055193;28;20377;-73
2021/03/07 04:29:34;;;;;;;196.53;83.53;;;25.80;1561.60;;;;;;5055051;28;20032;-72
2021/03/07 04:32:01;;;;;;;192.40;83.23;;;25.70;1587.20;;;;;;5055088;28;20462;-72
2021/03/07 04:34:28;;;;;;;163.07;71.83;;;25.70;1587.20;;;;;;5054855;28;20040;-72
2021/03/07 04:36:54;;;;;;;159.00;71.63;;;25.80;1536.00;;;;;;5054901;28;20049;-72
2021/03/07 04:39:20;;;;;;;139.07;65.47;;;25.70;1561.60;;;;;;5054938;28;20032;-74
2021/03/07 04:41:46;;;;;;;140.60;66.77;;;25.70;1612.80;;;;;;5054860;28;20033;-72
2021/03/07 04:44:12;;;;;;;145.83;67.33;;;25.60;1612.80;;;;;;5054825;28;20031;-72
2021/03/07 04:46:38;;;;;;;136.83;63.30;;;25.60;1612.80;;;;;;5054782;28;20025;-72
2021/03/07 04:49:04;;;;;;;137.13;61.50;;;25.60;1587.20;;;;;;5054751;28;20439;-74
2021/03/07 04:51:30;;;;;;;123.57;57.10;;;0.90;1664.00;;;;;;5054637;28;20025;-74
2021/03/07 04:53:56;;;;;;;115.60;56.03;;;0.90;1587.20;;;;;;5054392;28;20057;-72
2021/03/07 04:56:22;;;;;;;121.23;54.70;;;0.80;1612.80;;;;;;5054504;28;20367;-73
2021/03/07 04:58:48;;;;;;;115.37;53.37;;;0.70;1638.40;;;;;;5054554;28;20489;-72
2021/03/07 05:01:14;;;;;;;108.50;51.43;;;0.60;1587.20;;;;;;5054488;28;20056;-72
2021/03/07 05:03:40;;;;;;;112.83;52.40;;;0.70;1587.20;;;;;;5054778;28;20056;-71
2021/03/07 05:06:06;;;;;;;108.60;54.53;;;0.60;1587.20;;;;;;5053113;28;20033;-72
2021/03/07 05:08:32;;;;;;;120.03;56.23;;;0.70;1638.40;;;;;;5054325;28;20025;-73
2021/03/07 05:10:58;;;;;;;112.00;51.60;;;0.60;1689.60;;;;;;5054352;28;20029;-75
2021/03/07 05:13:24;;;;;;;116.63;53.10;;;0.60;1612.80;;;;;;5054555;28;20029;-72
2021/03/07 05:15:51;;;;;;;109.80;50.37;;;0.70;1587.20;;;;;;5052880;28;20037;-72
2021/03/07 05:18:16;;;;;;;106.00;53.20;;;0.80;1612.80;;;;;;5054519;28;20036;-72
2021/03/07 05:20:42;;;;;;;140.67;65.63;;;0.80;1587.20;;;;;;5054121;28;20468;-72
2021/03/07 05:23:09;;;;;;;148.33;71.17;;;0.70;1638.40;;;;;;5054393;28;20469;-72
2021/03/07 05:25:34;;;;;;;141.63;71.20;;;0.60;1638.40;;;;;;5054027;28;20025;-72
2021/03/07 05:28:00;;;;;;;129.30;64.63;;;0.70;1612.80;;;;;;5053995;28;20440;-72
2021/03/07 05:30:26;;;;;;;110.73;57.23;;;0.70;1638.40;;;;;;5053979;28;20021;-72
2021/03/07 05:32:53;;;;;;;96.50;45.83;;;0.50;1715.20;;;;;;5053029;28;20039;-72
2021/03/07 05:35:20;;;;;;;132.23;56.97;;;0.60;1612.80;;;;;;5053815;28;20037;-72
2021/03/07 05:37:46;;;;;;;117.67;51.90;;;0.60;1612.80;;;;;;5054106;28;20018;-71
2021/03/07 05:40:12;;;;;;;110.67;50.53;;;0.70;1587.20;;;;;;5049715;28;20033;-72
2021/03/07 05:42:39;;;;;;;108.60;50.07;;;0.70;1587.20;;;;;;5042961;28;20029;-73
2021/03/07 05:45:05;;;;;;;111.13;51.87;;;0.70;1561.60;;;;;;5034060;28;20030;-74
2021/03/07 05:47:31;;;;;;;117.20;53.93;;;0.60;1689.60;;;;;;5033664;28;20435;-72
2021/03/07 05:49:57;;;;;;;109.67;52.00;;;0.50;1664.00;;;;;;5033961;28;20064;-72
2021/03/07 05:52:23;;;;;;;112.93;51.67;;;0.50;1689.60;;;;;;5032181;28;20029;-72
2021/03/07 05:54:52;;;;;;;110.80;52.03;;;0.60;1664.00;;;;;;5033602;28;20034;-74
2021/03/07 05:57:22;;;;;;;116.00;54.17;;;0.60;1612.80;;;;;;5033916;28;20021;-74
2021/03/07 05:59:49;;;;;;;124.27;56.43;;;0.70;1612.80;;;;;;5033822;28;20017;-72
2021/03/07 06:02:16;;;;;;;410.00;195.40;;;0.80;1689.60;;;;;;5033659;28;20079;-72
2021/03/07 06:04:43;;;;;;;493.57;254.93;;;0.80;1587.20;;;;;;5033546;28;20030;-72
2021/03/07 06:07:09;;;;;;;466.60;225.87;;;0.90;1689.60;;;;;;5033476;28;20156;-72
2021/03/07 06:09:36;;;;;;;284.67;147.70;;;0.90;1612.80;;;;;;5032159;28;20375;-72
2021/03/07 06:12:02;;;;;;;218.53;111.03;;;25.60;1612.80;;;;;;5033443;28;20033;-72
2021/03/07 06:14:30;;;;;;;194.33;101.60;;;25.70;1612.80;;;;;;5041072;28;20033;-72
2021/03/07 06:17:14;;;;;;;206.30;101.27;;;25.70;1638.40;;;;;;5037057;28;20029;-73
2021/03/07 06:20:13;;;;;;;204.52;95.38;;;25.80;1587.20;;;;;;5033391;28;20026;-72
2021/03/07 06:22:50;;;;;;;212.77;97.67;;;25.90;1638.40;;;;;;5031329;28;20052;-72
2021/03/07 06:25:16;;;;;;;283.77;122.00;;;26.00;1536.00;;;;;;5031516;28;20032;-72
2021/03/07 06:27:42;;;;;;;301.43;128.70;;;26.10;1587.20;;;;;;5031114;28;20514;-72
2021/03/07 06:30:17;;;;;;;315.27;128.67;;;26.10;1612.80;;;;;;5031466;28;20029;-74
2021/03/07 06:33:03;;;;;;;240.10;106.47;;;26.20;1561.60;;;;;;5049628;28;20033;-72
2021/03/07 06:35:32;;;;;;;173.70;77.30;;;26.30;1536.00;;;;;;5051097;28;20044;-72
2021/03/07 06:38:07;;;;;;;130.97;61.47;;;26.30;1561.60;;;;;;5051031;28;20100;-72
2021/03/07 06:40:45;;;;;;;107.23;56.03;;;26.40;1536.00;;;;;;5033725;28;20116;-72
2021/03/07 06:43:27;;;;;;;91.83;48.70;;;51.20;1561.60;;;;;;5051697;28;20592;-72
2021/03/07 06:45:53;;;;;;;95.70;50.53;;;51.20;1587.20;;;;;;5054978;28;20044;-73
2021/03/07 06:48:19;;;;;;;104.47;50.80;;;51.30;1612.80;;;;;;5054938;28;20036;-74
2021/03/07 06:50:54;;;;;;;102.00;52.57;;;51.30;1638.40;;;;;;5054204;28;20032;-71
2021/03/07 06:53:37;;;;;;;117.47;54.70;;;51.20;1612.80;;;;;;5054573;28;20084;-74
2021/03/07 06:56:05;;;;;;;96.87;48.23;;;51.20;1638.40;;;;;;5054722;28;20132;-73
2021/03/07 06:58:31;;;;;;;80.43;43.67;;;51.30;1612.80;;;;;;5043353;28;20108;-72
2021/03/07 07:00:57;;;;;;;79.37;42.73;;;51.40;1638.40;;;;;;5036795;28;20025;-72
2021/03/07 07:03:24;;;;;;;98.83;48.80;;;51.50;1638.40;;;;;;5036745;28;20420;-72
2021/03/07 07:05:54;;;;;;;84.03;42.23;;;51.80;1612.80;;;;;;5036447;28;20104;-72
2021/03/07 07:08:44;;;;;;;73.63;39.90;;;52.10;1561.60;;;;;;5028620;28;20026;-73
2021/03/07 07:11:10;;;;;;;72.13;38.53;;;77.00;1561.60;;;;;;5016897;28;20489;-74
2021/03/07 07:13:45;;;;;;;55.80;30.93;;;77.50;1536.00;;;;;;5025511;28;20021;-73
2021/03/07 07:16:12;;;;;;;66.47;38.70;;;102.60;1433.60;;;;;;5031388;28;20044;-71
2021/03/07 07:18:40;;;;;;;59.50;39.30;;;128.80;1305.60;;;;;;5015489;28;20383;-72
2021/03/07 07:21:09;;;;;;;56.65;37.03;;;205.10;1100.80;;;;;;5016171;28;20037;-74
2021/03/07 07:23:35;;;;;;;43.85;31.58;;;231.30;972.80;;;;;;5016915;28;20026;-74
2021/03/07 07:26:03;;;;;;;45.38;29.60;;;281.60;921.60;;;;;;5035989;28;20064;-75
2021/03/07 07:28:29;;;;;;;37.35;23.40;;;307.50;844.80;;;;;;5034539;28;20037;-72
2021/03/07 07:31:20;;;;;;;38.88;29.95;;;308.10;793.60;;;;;;5033586;28;20010;-73
2021/03/07 07:33:54;;;;;;;41.65;28.55;;;358.50;768.00;;;;;;5031114;28;20080;-70
2021/03/07 07:36:31;;;;;;;44.97;30.33;;;384.10;716.80;;;;;;5035720;28;20033;-72
2021/03/07 07:38:57;;;;;;;41.72;27.80;;;384.90;691.20;;;;;;5036136;28;20109;-73
2021/03/07 07:41:31;;;;;;;38.95;27.63;;;384.90;640.00;;;;;;5036365;28;20030;-73
2021/03/07 07:43:57;;;;;;;43.38;27.73;;;409.80;665.60;;;;;;5033191;28;20021;-74
2021/03/07 07:46:23;;;;;;;39.53;26.75;;;435.20;665.60;;;;;;5028417;28;20470;-74
2021/03/07 07:48:49;;;;;;;41.55;27.38;;;435.70;640.00;;;;;;5016057;28;20064;-75
2021/03/07 07:51:32;;;;;;;35.65;27.48;;;436.00;665.60;;;;;;5027617;28;20018;-74
2021/03/07 07:53:58;;;;;;;33.53;25.27;;;460.80;640.00;;;;;;5041900;28;20033;-75
2021/03/07 07:56:41;;;;;;;32.15;23.80;;;461.40;640.00;;;;;;5076595;28;20030;-74
2021/03/07 07:59:09;;;;;;;27.55;19.48;;;461.40;665.60;;;;;;5051612;28;20021;-73
2021/03/07 08:01:46;;;;;;;31.42;23.83;;;461.60;614.40;;;;;;5052275;28;20405;-72
2021/03/07 08:04:27;;;;;;;29.42;19.40;;;461.60;640.00;;;;;;5054754;28;20096;-73
2021/03/07 08:06:57;;;;;;;23.10;15.32;;;436.10;640.00;;;;;;5055551;28;20027;-73
2021/03/07 08:09:46;;;;;;;16.33;10.45;;;435.70;640.00;;;;;;5054227;28;20078;-74
2021/03/07 08:12:33;;;;;;;17.45;11.88;;;409.60;665.60;;;;;;5055491;28;20025;-74
2021/03/07 08:14:59;;;;;;;19.77;11.07;;;384.70;640.00;;;;;;5044837;28;20057;-75
2021/03/07 08:18:03;;;;;;;21.00;14.25;;;384.80;640.00;;;;;;5051700;28;20079;-74
2021/03/07 08:20:38;;;;;;;;;;;384.10;665.60;;;;;;5055625;28;20083;-75
2021/03/07 08:23:14;;;;;;;18.10;11.55;;;384.20;640.00;;;;;;5055210;28;19967;-74
2021/03/07 08:25:46;;;;;;;14.27;11.02;;;359.30;691.20;;;;;;5055125;28;20028;-73
2021/03/07 08:28:31;;;;;;;18.55;11.52;;;359.00;691.20;;;;;;5055002;28;20029;-74
2021/03/07 08:31:00;;;;;;;12.32;9.48;;;333.50;691.20;;;;;;5052444;28;20469;-75
2021/03/07 08:33:27;;;;;;;14.05;9.82;;;333.50;742.40;;;;;;5047234;28;20025;-75
2021/03/07 08:36:23;;;;;;;14.82;10.55;;;333.30;768.00;;;;;;5048492;28;20043;-73
2021/03/07 08:38:51;;;;;;;24.63;8.20;;;333.20;742.40;;;;;;5034618;28;20033;-71
2021/03/07 08:41:25;;;;;;;18.85;10.98;;;333.00;742.40;;;;;;5035437;28;20033;-93
2021/03/07 08:43:57;;;;;;;13.45;9.13;;;308.10;742.40;;;;;;5050230;28;20028;-73
2021/03/07 08:46:27;;;;;;;14.05;6.80;;;332.90;768.00;;;;;;5055088;28;20032;-73
2021/03/07 08:49:06;;;;;;;10.07;7.18;;;307.80;716.80;;;;;;5054619;28;20493;-72
2021/03/07 08:51:37;;;;;;;12.90;7.97;;;307.30;742.40;;;;;;5054735;28;20024;-72
2021/03/07 08:54:20;;;;;;;22.67;8.18;;;307.50;742.40;;;;;;5054277;28;20542;-74
2021/03/07 08:56:47;;;;;;;44.20;11.07;;;307.70;768.00;;;;;;5053946;28;20037;-72
2021/03/07 08:59:14;;;;;;;14.60;9.43;;;307.20;768.00;;;;;;5048644;28;20021;-73
2021/03/07 09:01:40;;;;;;;33.63;15.65;;;307.70;716.80;;;;;;5046124;28;20025;-72
2021/03/07 09:04:10;;;;;;;27.33;10.18;;;332.80;768.00;;;;;;5047805;28;20418;-74
2021/03/07 09:06:41;;;;;;;17.02;9.48;;;307.80;742.40;;;;;;5052097;28;20094;-73
2021/03/07 09:09:19;;;;;;;18.88;9.43;;;307.20;742.40;;;;;;5051324;28;20035;-77
2021/03/07 09:11:52;;;;;;;9.52;6.45;;;282.30;742.40;;;;;;5033044;28;20026;-84
2021/03/07 09:14:35;;;;;;;11.77;7.80;;;307.80;691.20;;;;;;5033140;28;20025;-72
2021/03/07 09:17:04;;;;;;;9.63;6.55;;;333.10;691.20;;;;;;5044980;28;20028;-72
2021/03/07 09:19:39;;;;;;;17.23;9.60;;;333.30;665.60;;;;;;5054133;28;20096;-76
2021/03/07 09:22:15;;;;;;;16.35;8.77;;;358.40;614.40;;;;;;5036858;28;20037;-74
2021/03/07 09:24:55;;;;;;;10.65;7.07;;;358.40;640.00;;;;;;5034185;28;20529;-74
2021/03/07 09:27:22;;;;;;;9.18;6.45;;;333.30;665.60;;;;;;5034174;28;20573;-72
2021/03/07 09:30:08;;;;;;;9.95;6.65;;;333.30;665.60;;;;;;5034065;28;20022;-75
2021/03/07 09:32:40;;;;;;;9.80;6.63;;;333.30;640.00;;;;;;5034307;28;20131;-74
2021/03/07 09:35:26;;;;;;;18.48;9.32;;;332.80;691.20;;;;;;5032697;28;20033;-74
2021/03/07 09:38:02;;;;;;;12.68;7.28;;;307.60;716.80;;;;;;5034025;28;20029;-74
2021/03/07 09:40:35;;;;;;;17.08;8.23;;;282.30;691.20;;;;;;5033860;28;20044;-81
2021/03/07 09:43:06;;;;;;;16.05;9.68;;;282.00;768.00;;;;;;5032686;28;20163;-74
2021/03/07 09:45:34;;;;;;;16.45;8.40;;;282.00;742.40;;;;;;5034148;28;20036;-74
2021/03/07 09:48:00;;;;;;;17.98;7.70;;;281.70;768.00;;;;;;5034113;28;20049;-75
2021/03/07 09:50:26;;;;;;;14.07;7.05;;;256.80;742.40;;;;;;5033501;28;20029;-75
2021/03/07 09:52:54;;;;;;;17.95;6.63;;;256.60;768.00;;;;;;5051237;28;20379;-76
2021/03/07 09:55:25;;;;;;;9.43;5.43;;;256.60;768.00;;;;;;5050969;28;20045;-79
2021/03/07 09:58:02;;;;;;;14.95;6.65;;;256.70;742.40;;;;;;5050084;28;20402;-77
2021/03/07 10:00:29;;;;;;;12.00;6.30;;;256.80;742.40;;;;;;5033600;28;20024;-82
2021/03/07 10:02:55;;;;;;;15.88;5.93;;;256.70;793.60;;;;;;5033792;28;20021;-71
2021/03/07 10:05:21;;;;;;;32.55;7.95;;;256.20;793.60;;;;;;5044113;28;20029;-79
2021/03/07 10:07:47;;;;;;;12.95;5.38;;;256.20;819.20;;;;;;5053599;28;20021;-72
2021/03/07 10:10:25;;;;;;;13.13;5.95;;;256.00;793.60;;;;;;5043444;28;20508;-72
2021/03/07 10:12:54;;;;;;;12.38;7.00;;;231.30;793.60;;;;;;5040316;28;20477;-81
2021/03/07 10:15:29;;;;;;;45.40;29.73;;;256.00;819.20;;;;;;5038267;28;20485;-71
2021/03/07 10:18:17;;;;;;;11.88;5.63;;;231.30;819.20;;;;;;5033072;28;20370;-72
2021/03/07 10:20:48;;;;;;;9.88;6.35;;;231.30;793.60;;;;;;5042499;28;20017;-74
2021/03/07 10:23:14;;;;;;;13.10;6.50;;;231.10;793.60;;;;;;5045082;28;20033;-73
2021/03/07 10:25:43;;;;;;;15.30;6.43;;;231.20;793.60;;;;;;5039689;28;20104;-73
2021/03/07 10:28:12;;;;;;;9.95;7.10;;;256.00;793.60;;;;;;5042883;28;20104;-77
2021/03/07 10:30:43;;;;;;;16.85;7.82;;;256.10;768.00;;;;;;5033153;28;20017;-73
2021/03/07 10:33:29;;;;;;;10.93;6.40;;;256.10;819.20;;;;;;5031781;28;20029;-78
2021/03/07 10:36:12;;;;;;;20.60;6.38;;;256.10;793.60;;;;;;5033463;28;20037;-73
2021/03/07 10:38:48;;;;;;;15.52;5.88;;;256.20;793.60;;;;;;5037869;28;20029;-70
2021/03/07 10:41:33;;;;;;;34.20;7.68;;;256.00;793.60;;;;;;5037571;28;20478;-72
2021/03/07 10:44:24;;;;;;;10.70;5.43;;;256.10;793.60;;;;;;5053098;28;20032;-71
2021/03/07 10:46:50;;;;;;;9.00;5.63;;;256.00;793.60;;;;;;5052969;28;20027;-72
2021/03/07 10:49:18;;;;;;;14.60;6.10;;;231.30;819.20;;;;;;5034753;28;20120;-72
2021/03/07 10:51:44;;;;;;;11.80;6.35;;;231.30;793.60;;;;;;5032917;28;20021;-72
2021/03/07 10:54:11;;;;;;;14.00;6.80;;;231.20;793.60;;;;;;5033374;28;20041;-74
2021/03/07 10:56:40;;;;;;;9.90;5.00;;;231.30;844.80;;;;;;5032605;28;20191;-73
2021/03/07 10:59:06;;;;;;;10.93;6.30;;;231.30;793.60;;;;;;5032515;28;20021;-73
2021/03/07 11:01:33;;;;;;;11.02;6.10;;;256.10;768.00;;;;;;5032969;28;20029;-71
2021/03/07 11:03:59;;;;;;;14.00;7.95;;;256.10;768.00;;;;;;5036196;28;20030;-75
2021/03/07 11:06:25;;;;;;;9.90;6.38;;;256.30;793.60;;;;;;5044241;28;20028;-80
2021/03/07 11:08:51;;;;;;;15.10;7.25;;;256.30;742.40;;;;;;5048589;28;20088;-78
2021/03/07 11:11:18;;;;;;;19.83;9.65;;;256.30;819.20;;;;;;5043772;28;20033;-77
2021/03/07 11:13:44;;;;;;;14.60;8.60;;;256.30;716.80;;;;;;5052985;28;20017;-75
2021/03/07 11:16:11;;;;;;;18.92;8.43;;;256.40;742.40;;;;;;5052739;28;20033;-80
2021/03/07 11:18:37;;;;;;;11.65;6.43;;;256.60;768.00;;;;;;5034756;28;20025;-78
2021/03/07 11:21:06;;;;;;;6.90;4.90;;;256.60;768.00;;;;;;5038228;28;20078;-78
2021/03/07 11:23:33;;;;;;;8.70;4.80;;;256.60;819.20;;;;;;5053006;28;20029;-78
2021/03/07 11:26:03;;;;;;;13.88;7.97;;;256.50;768.00;;;;;;5033208;28;20075;-74
2021/03/07 11:28:29;;;;;;;12.95;6.88;;;256.50;793.60;;;;;;5041689;28;20024;-76
2021/03/07 11:30:55;;;;;;;10.25;6.88;;;256.60;768.00;;;;;;5036795;28;20025;-82
2021/03/07 11:33:21;;;;;;;11.45;7.95;;;256.60;742.40;;;;;;5036063;28;20044;-81
2021/03/07 11:35:48;;;;;;;10.85;6.07;;;256.70;768.00;;;;;;5035199;28;20490;-78
2021/03/07 11:38:13;;;;;;;18.65;9.85;;;256.70;716.80;;;;;;5035432;28;20025;-74
2021/03/07 11:40:39;;;;;;;13.00;7.53;;;256.70;742.40;;;;;;5038486;28;20508;-75
2021/03/07 11:43:05;;;;;;;14.52;7.22;;;256.50;768.00;;;;;;5048178;28;20025;-73
2021/03/07 11:45:31;;;;;;;18.77;8.10;;;256.50;768.00;;;;;;5054418;28;20407;-73
2021/03/07 11:47:58;;;;;;;16.88;9.07;;;256.30;768.00;;;;;;5036128;28;20385;-73
2021/03/07 11:50:24;;;;;;;13.90;7.57;;;256.30;793.60;;;;;;5034828;28;20397;-74
2021/03/07 11:52:50;;;;;;;12.82;7.43;;;256.20;793.60;;;;;;5037966;28;20444;-73
2021/03/07 11:55:16;;;;;;;36.05;17.38;;;256.20;742.40;;;;;;5055749;28;20033;-73
2021/03/07 11:57:41;;;;;;;14.68;8.43;;;256.20;768.00;;;;;;5051718;28;20030;-77
2021/03/07 12:00:08;;;;;;;16.95;8.85;;;256.40;768.00;;;;;;5035816;28;20049;-79
2021/03/07 12:02:35;;;;;;;10.88;6.82;;;256.50;768.00;;;;;;5035935;28;20033;-82
2021/03/07 12:05:01;;;;;;;9.10;7.20;;;256.40;742.40;;;;;;5034512;28;20033;-80
2021/03/07 12:07:27;;;;;;;15.45;7.45;;;256.40;716.80;;;;;;5035807;28;20087;-76
2021/03/07 12:09:52;;;;;;;11.32;6.15;;;256.40;716.80;;;;;;5035790;28;20108;-73
2021/03/07 12:12:18;;;;;;;21.65;12.32;;;256.50;716.80;;;;;;5035576;28;20030;-74
2021/03/07 12:14:45;;;;;;;13.00;6.97;;;256.60;742.40;;;;;;5035446;28;20489;-74
2021/03/07 12:17:11;;;;;;;20.80;10.30;;;256.50;716.80;;;;;;5035490;28;20104;-77
2021/03/07 12:19:37;;;;;;;21.80;10.90;;;256.50;742.40;;;;;;5035408;28;20151;-78